createdAt,value
2022-11-24T00:00:18.805Z,3.6
2022-11-24T00:01:18.649Z,3.6
2022-11-24T00:02:19.129Z,3.6
2022-11-24T00:03:19.749Z,3.6
2022-11-24T00:04:18.658Z,3.7
2022-11-24T00:05:18.463Z,3.6
2022-11-24T00:06:18.916Z,3.7
2022-11-24T00:07:19.286Z,3.7
2022-11-24T00:08:18.681Z,3.7
2022-11-24T00:09:18.910Z,3.7
2022-11-24T00:10:18.380Z,3.7
2022-11-24T00:11:19.178Z,3.7
2022-11-24T00:12:18.523Z,3.7
2022-11-24T00:13:18.990Z,3.7
2022-11-24T00:14:19.425Z,3.7
2022-11-24T00:15:19.005Z,3.7
2022-11-24T00:16:18.754Z,3.7
2022-11-24T00:17:17.796Z,3.7
2022-11-24T00:18:17.980Z,3.7
2022-11-24T00:19:23.745Z,3.8
2022-11-24T00:20:18.744Z,3.8
2022-11-24T00:21:18.563Z,3.8
2022-11-24T00:22:18.805Z,3.8
2022-11-24T00:23:17.646Z,3.8
2022-11-24T00:24:19.303Z,3.8
2022-11-24T00:25:19.052Z,3.8
2022-11-24T00:26:18.457Z,3.8
2022-11-24T00:27:19.172Z,3.8
2022-11-24T00:28:18.630Z,3.8
2022-11-24T00:29:18.582Z,3
2022-11-24T00:30:18.929Z,3.9
2022-11-24T00:31:21.799Z,3.9
2022-11-24T00:32:18.926Z,3.9
2022-11-24T00:33:18.917Z,3.9
2022-11-24T00:34:18.352Z,3.9
2022-11-24T00:35:18.546Z,3.9
2022-11-24T00:36:19.004Z,3.9
2022-11-24T00:37:19.293Z,3.9
2022-11-24T00:38:18.872Z,3.9
2022-11-24T00:39:18.782Z,3.9
2022-11-24T00:40:18.598Z,3.9
2022-11-24T00:41:18.703Z,4
2022-11-24T00:42:19.123Z,3.9
2022-11-24T00:43:19.347Z,4
2022-11-24T00:44:19.341Z,4
2022-11-24T00:45:19.221Z,4
2022-11-24T00:46:18.813Z,4
2022-11-24T00:47:17.950Z,4
2022-11-24T00:48:19.147Z,4
2022-11-24T00:49:18.901Z,4
2022-11-24T00:50:19.356Z,4
2022-11-24T00:51:18.705Z,4
2022-11-24T00:52:18.355Z,4
2022-11-24T00:53:19.021Z,4
2022-11-24T00:54:18.341Z,4.1
2022-11-24T00:55:19.030Z,4.1
2022-11-24T00:56:18.817Z,4.1
2022-11-24T00:57:18.765Z,4.1
2022-11-24T00:58:19.167Z,4.1
2022-11-24T00:59:18.400Z,4.1
2022-11-24T01:00:18.893Z,4.2
2022-11-24T01:01:19.039Z,4.2
2022-11-24T01:02:18.642Z,4.2
2022-11-24T01:03:18.483Z,4.2
2022-11-24T01:04:18.788Z,4.2
2022-11-24T01:05:19.259Z,4.2
2022-11-24T01:06:18.677Z,4.2
2022-11-24T01:07:17.700Z,4
2022-11-24T01:08:19.075Z,4.2
2022-11-24T01:09:18.504Z,4.2
2022-11-24T01:10:18.857Z,4.2
2022-11-24T01:11:19.296Z,4.3
2022-11-24T01:12:19.210Z,4.3
2022-11-24T01:13:18.893Z,4.3
2022-11-24T01:14:19.352Z,4.4
2022-11-24T01:15:18.138Z,4.4
2022-11-24T01:16:18.934Z,4
2022-11-24T01:17:19.015Z,4.4
2022-11-24T01:18:19.272Z,4.4
2022-11-24T01:19:18.722Z,4.4
2022-11-24T01:20:17.442Z,4.5
2022-11-24T01:21:18.157Z,4.5
2022-11-24T01:22:18.621Z,4.5
2022-11-24T01:23:18.655Z,4.5
2022-11-24T01:24:19.403Z,4.6
2022-11-24T01:25:18.672Z,4.6
2022-11-24T01:26:19.260Z,4.6
2022-11-24T01:27:19.114Z,4.7
2022-11-24T01:28:19.476Z,4.7
2022-11-24T01:29:18.781Z,4.7
2022-11-24T01:30:19.235Z,4.8
2022-11-24T01:31:19.197Z,4.8
2022-11-24T01:32:17.520Z,4.8
2022-11-24T01:33:18.978Z,4.8
2022-11-24T01:34:18.698Z,4.8
2022-11-24T01:35:18.989Z,4.8
2022-11-24T01:36:18.421Z,4.8
2022-11-24T01:37:18.810Z,4.9
2022-11-24T01:38:18.612Z,4.9
2022-11-24T01:39:18.312Z,4.9
2022-11-24T01:40:17.856Z,4.9
2022-11-24T01:41:18.095Z,5
2022-11-24T01:42:19.114Z,6
2022-11-24T01:43:19.136Z,6
2022-11-24T01:44:18.677Z,6
2022-11-24T01:45:18.876Z,5
2022-11-24T01:46:19.356Z,5
2022-11-24T01:47:18.595Z,5
2022-11-24T01:48:21.114Z,5
2022-11-24T01:49:19.330Z,5
2022-11-24T01:50:17.599Z,5
2022-11-24T01:51:18.575Z,5
2022-11-24T01:52:17.676Z,5
2022-11-24T01:53:18.772Z,5
2022-11-24T01:54:19.119Z,5
2022-11-24T01:55:18.791Z,5
2022-11-24T01:56:19.071Z,6
2022-11-24T01:57:18.988Z,5
2022-11-24T01:58:19.312Z,5
2022-11-24T01:59:19.112Z,5
2022-11-24T02:00:18.502Z,5
2022-11-24T02:01:19.049Z,5
2022-11-24T02:02:19.218Z,5
2022-11-24T02:03:18.502Z,5.1
2022-11-24T02:04:18.854Z,5.1
2022-11-24T02:05:19.214Z,5.1
2022-11-24T02:06:18.609Z,5.1
2022-11-24T02:07:19.271Z,6
2022-11-24T02:08:18.811Z,6
2022-11-24T02:09:19.200Z,6
2022-11-24T02:10:18.696Z,5.2
2022-11-24T02:11:19.063Z,5.2
2022-11-24T02:12:18.385Z,5.2
2022-11-24T02:13:18.744Z,5.2
2022-11-24T02:14:19.172Z,5.2
2022-11-24T02:15:19.250Z,5.2
2022-11-24T02:16:19.205Z,6
2022-11-24T02:17:19.308Z,6
2022-11-24T02:18:19.277Z,5.2
2022-11-24T02:19:19.261Z,6
2022-11-24T02:20:18.527Z,5.2
2022-11-24T02:21:18.958Z,5.2
2022-11-24T02:22:18.474Z,5.2
2022-11-24T02:23:18.824Z,5.2
2022-11-24T02:24:19.293Z,5.3
2022-11-24T02:25:18.572Z,5.3
2022-11-24T02:26:19.066Z,5.3
2022-11-24T02:27:18.436Z,5.3
2022-11-24T02:28:18.758Z,5.3
2022-11-24T02:29:19.130Z,5.3
2022-11-24T02:30:18.612Z,5.4
2022-11-24T02:31:19.157Z,5.4
2022-11-24T02:32:17.611Z,5.4
2022-11-24T02:33:18.164Z,5.4
2022-11-24T02:34:18.604Z,5.4
2022-11-24T02:35:19.057Z,5.4
2022-11-24T02:36:18.972Z,5.5
2022-11-24T02:37:19.253Z,5.5
2022-11-24T02:38:18.757Z,5.5
2022-11-24T02:39:18.656Z,5.5
2022-11-24T02:40:19.328Z,5.5
2022-11-24T02:41:18.973Z,5.5
2022-11-24T02:42:19.407Z,5.5
2022-11-24T02:43:18.756Z,6
2022-11-24T02:44:18.599Z,5.6
2022-11-24T02:45:18.672Z,6
2022-11-24T02:46:19.456Z,5.6
2022-11-24T02:47:18.607Z,5.6
2022-11-24T02:48:19.543Z,5.6
2022-11-24T02:49:18.862Z,5.6
2022-11-24T02:50:18.550Z,5.6
2022-11-24T02:51:18.795Z,5.6
2022-11-24T02:52:19.186Z,5.6
2022-11-24T02:53:19.244Z,5.6
2022-11-24T02:54:18.555Z,5.6
2022-11-24T02:55:19.027Z,5.6
2022-11-24T02:56:18.478Z,5.7
2022-11-24T02:57:18.709Z,5.7
2022-11-24T02:58:18.995Z,5.7
2022-11-24T02:59:18.567Z,5.7
2022-11-24T03:00:18.404Z,5.7
2022-11-24T03:01:19.103Z,5.7
2022-11-24T03:02:19.451Z,5.7
2022-11-24T03:03:18.604Z,5.7
2022-11-24T03:04:18.815Z,5.7
2022-11-24T03:05:19.149Z,5.7
2022-11-24T03:06:18.754Z,5.7
2022-11-24T03:07:19.184Z,5.7
2022-11-24T03:08:18.888Z,5.7
2022-11-24T03:09:17.448Z,5.7
2022-11-24T03:10:19.015Z,5.6
2022-11-24T03:11:17.681Z,5.6
2022-11-24T03:12:19.386Z,5.6
2022-11-24T03:13:18.784Z,5.6
2022-11-24T03:14:19.064Z,5.6
2022-11-24T03:15:19.417Z,5.7
2022-11-24T03:16:19.281Z,5.7
2022-11-24T03:17:18.512Z,5.6
2022-11-24T03:18:19.127Z,5.6
2022-11-24T03:19:18.764Z,5.6
2022-11-24T03:20:19.280Z,5.6
2022-11-24T03:21:18.812Z,5.6
2022-11-24T03:22:19.294Z,5.6
2022-11-24T03:23:19.351Z,6
2022-11-24T03:24:18.761Z,5.7
2022-11-24T03:25:19.108Z,5.7
2022-11-24T03:26:18.689Z,5.6
2022-11-24T03:27:18.946Z,5.6
2022-11-24T03:28:19.354Z,5.6
2022-11-24T03:29:19.038Z,5.6
2022-11-24T03:30:18.344Z,5.6
2022-11-24T03:31:18.738Z,5.6
2022-11-24T03:32:19.309Z,5.6
2022-11-24T03:33:18.850Z,5.6
2022-11-24T03:34:19.229Z,5.6
2022-11-24T03:35:19.285Z,5.6
2022-11-24T03:36:18.683Z,5.6
2022-11-24T03:37:18.498Z,5.6
2022-11-24T03:38:19.113Z,5.6
2022-11-24T03:39:18.588Z,5.6
2022-11-24T03:40:18.039Z,5.6
2022-11-24T03:41:18.760Z,6
2022-11-24T03:42:19.305Z,6
2022-11-24T03:43:18.768Z,5.6
2022-11-24T03:44:19.335Z,5.6
2022-11-24T03:45:49.982Z,6
2022-11-24T03:46:19.131Z,6
2022-11-24T03:47:19.299Z,5.6
2022-11-24T03:48:19.068Z,5.6
2022-11-24T03:49:18.416Z,5.6
2022-11-24T03:50:18.935Z,5.6
2022-11-24T03:51:18.908Z,5.6
2022-11-24T03:52:18.775Z,5.6
2022-11-24T03:53:18.642Z,5.6
2022-11-24T03:54:19.089Z,5.6
2022-11-24T03:55:19.461Z,5.6
2022-11-24T03:56:18.307Z,5.6
2022-11-24T03:57:18.719Z,5.5
2022-11-24T03:58:18.173Z,5.5
2022-11-24T03:59:18.498Z,5.5
2022-11-24T04:00:18.825Z,5.5
2022-11-24T04:01:18.913Z,5.6
2022-11-24T04:02:19.023Z,6
2022-11-24T04:03:19.265Z,5.5
2022-11-24T04:04:18.464Z,5.5
2022-11-24T04:05:18.888Z,5.6
2022-11-24T04:06:19.167Z,5.6
2022-11-24T04:07:18.877Z,5.6
2022-11-24T04:08:18.484Z,5.6
2022-11-24T04:09:18.785Z,5.6
2022-11-24T04:10:19.228Z,5.6
2022-11-24T04:11:18.558Z,5.6
2022-11-24T04:12:18.478Z,5.6
2022-11-24T04:13:18.823Z,5.6
2022-11-24T04:14:19.251Z,5.6
2022-11-24T04:15:18.671Z,6
2022-11-24T04:16:18.750Z,5.5
2022-11-24T04:17:19.411Z,6
2022-11-24T04:18:18.862Z,5.6
2022-11-24T04:19:19.085Z,5.5
2022-11-24T04:20:18.953Z,5.5
2022-11-24T04:21:18.143Z,5.5
2022-11-24T04:22:18.508Z,5.6
2022-11-24T04:23:18.990Z,5.5
2022-11-24T04:24:18.896Z,5.6
2022-11-24T04:25:18.990Z,5.6
2022-11-24T04:26:18.879Z,5.6
2022-11-24T04:27:19.305Z,5.6
2022-11-24T04:28:17.500Z,5.6
2022-11-24T04:29:18.553Z,5.6
2022-11-24T04:30:18.860Z,5.6
2022-11-24T04:31:18.747Z,5.6
2022-11-24T04:32:19.178Z,5.6
2022-11-24T04:33:18.579Z,5.6
2022-11-24T04:34:18.932Z,5.6
2022-11-24T04:35:19.304Z,5.6
2022-11-24T04:36:19.192Z,5.6
2022-11-24T04:37:19.465Z,5.6
2022-11-24T04:39:30.916Z,5.6
2022-11-24T04:39:31.111Z,5.6
2022-11-24T04:40:18.719Z,5.6
2022-11-24T04:41:19.070Z,5.6
2022-11-24T04:42:18.398Z,5.6
2022-11-24T04:43:18.931Z,5.6
2022-11-24T04:44:18.556Z,5.6
2022-11-24T04:45:18.984Z,5.6
2022-11-24T04:46:19.287Z,5.6
2022-11-24T04:47:19.144Z,5.6
2022-11-24T04:48:18.810Z,5.6
2022-11-24T04:49:19.382Z,5.6
2022-11-24T04:50:19.268Z,6
2022-11-24T04:51:18.685Z,5.5
2022-11-24T04:52:19.332Z,5.5
2022-11-24T04:53:19.385Z,5.5
2022-11-24T04:54:19.056Z,5.5
2022-11-24T04:55:18.803Z,5.5
2022-11-24T04:56:18.493Z,5.5
2022-11-24T04:57:19.352Z,5.5
2022-11-24T04:58:18.636Z,5.5
2022-11-24T04:59:19.413Z,5.5
2022-11-24T05:00:18.658Z,5.5
2022-11-24T05:01:19.461Z,5.5
2022-11-24T05:02:18.519Z,5.5
2022-11-24T05:03:18.880Z,6
2022-11-24T05:04:18.701Z,5.4
2022-11-24T05:05:18.835Z,5.5
2022-11-24T05:06:19.255Z,5.5
2022-11-24T05:07:23.050Z,5.5
2022-11-24T05:08:19.013Z,5.5
2022-11-24T05:09:18.972Z,5.5
2022-11-24T05:10:19.302Z,6
2022-11-24T05:11:18.916Z,6
2022-11-24T05:12:19.261Z,5.5
2022-11-24T05:13:19.098Z,5.5
2022-11-24T05:14:19.004Z,6
2022-11-24T05:15:19.360Z,6
2022-11-24T05:16:18.921Z,5.5
2022-11-24T05:17:19.449Z,6
2022-11-24T05:18:18.906Z,5.5
2022-11-24T05:19:19.135Z,5.4
2022-11-24T05:20:18.738Z,6
2022-11-24T05:21:19.112Z,5.4
2022-11-24T05:22:19.362Z,5.4
2022-11-24T05:23:18.527Z,5.4
2022-11-24T05:24:18.252Z,5.3
2022-11-24T05:25:18.548Z,5.4
2022-11-24T05:26:19.007Z,5.3
2022-11-24T05:27:19.335Z,5.3
2022-11-24T05:28:18.625Z,5.3
2022-11-24T05:29:18.841Z,5.3
2022-11-24T05:30:17.515Z,5.3
2022-11-24T05:31:18.053Z,5.3
2022-11-24T05:32:18.770Z,5.3
2022-11-24T05:33:19.449Z,5.3
2022-11-24T05:34:18.828Z,5.3
2022-11-24T05:35:18.743Z,5.3
2022-11-24T05:36:19.096Z,5.4
2022-11-24T05:37:18.925Z,5.4
2022-11-24T05:38:19.369Z,6
2022-11-24T05:39:19.406Z,5.4
2022-11-24T05:40:18.824Z,5.4
2022-11-24T05:41:18.418Z,5.4
2022-11-24T05:42:18.899Z,5.4
2022-11-24T05:43:19.349Z,5.4
2022-11-24T05:44:19.160Z,5.4
2022-11-24T05:45:18.645Z,5.4
2022-11-24T05:46:19.139Z,6
2022-11-24T05:47:19.221Z,6
2022-11-24T05:48:18.850Z,5.4
2022-11-24T05:49:19.296Z,5.4
2022-11-24T05:50:18.645Z,5.4
2022-11-24T05:51:19.228Z,5.4
2022-11-24T05:52:18.747Z,5.4
2022-11-24T05:53:19.416Z,5.4
2022-11-24T05:54:19.312Z,5.4
2022-11-24T05:55:18.445Z,5.4
2022-11-24T05:56:19.269Z,5.4
2022-11-24T05:57:18.567Z,5.4
2022-11-24T05:58:19.167Z,5.4
2022-11-24T05:59:18.689Z,5.4
2022-11-24T06:00:19.135Z,5.4
2022-11-24T06:01:19.433Z,5.4
2022-11-24T06:02:19.014Z,5.4
2022-11-24T06:03:18.928Z,5.4
2022-11-24T06:04:19.196Z,5.4
2022-11-24T06:05:19.314Z,5.4
2022-11-24T06:06:18.764Z,5.4
2022-11-24T06:07:19.329Z,5.3
2022-11-24T06:08:18.597Z,5
2022-11-24T06:09:18.629Z,5.3
2022-11-24T06:10:18.712Z,5.3
2022-11-24T06:11:18.480Z,5.3
2022-11-24T06:12:18.920Z,5.2
2022-11-24T06:13:19.448Z,5.2
2022-11-24T06:14:18.664Z,5.2
2022-11-24T06:15:19.063Z,5.2
2022-11-24T06:16:19.329Z,5.2
2022-11-24T06:17:19.031Z,5
2022-11-24T06:18:18.417Z,5.2
2022-11-24T06:19:18.787Z,5.2
2022-11-24T06:20:19.273Z,5.2
2022-11-24T06:21:19.401Z,5.2
2022-11-24T06:22:19.219Z,5.2
2022-11-24T06:23:19.155Z,5.2
2022-11-24T06:24:18.703Z,5.2
2022-11-24T06:25:19.026Z,5.2
2022-11-24T06:26:18.582Z,5.2
2022-11-24T06:27:18.219Z,5.2
2022-11-24T06:28:19.463Z,5.2
2022-11-24T06:29:19.063Z,5.2
2022-11-24T06:30:19.184Z,5.2
2022-11-24T06:31:19.713Z,5.2
2022-11-24T06:32:19.189Z,5.2
2022-11-24T06:33:19.083Z,5.2
2022-11-24T06:34:18.918Z,5.2
2022-11-24T06:35:19.417Z,5.2
2022-11-24T06:36:18.540Z,5
2022-11-24T06:37:18.955Z,5.2
2022-11-24T06:38:24.431Z,5.2
2022-11-24T06:39:19.308Z,5.2
2022-11-24T06:40:17.869Z,5
2022-11-24T06:41:19.259Z,5.2
2022-11-24T06:42:19.234Z,5.2
2022-11-24T06:43:18.892Z,5.2
2022-11-24T06:44:19.300Z,5.2
2022-11-24T06:45:18.845Z,5.2
2022-11-24T06:46:18.159Z,5.2
2022-11-24T06:47:18.782Z,5.2
2022-11-24T06:48:19.333Z,5
2022-11-24T06:49:18.526Z,5.2
2022-11-24T06:50:18.932Z,5.2
2022-11-24T06:51:18.767Z,5.3
2022-11-24T06:52:19.163Z,5.2
2022-11-24T06:53:18.421Z,5.3
2022-11-24T06:54:17.975Z,5.2
2022-11-24T06:55:18.533Z,5.3
2022-11-24T06:56:21.035Z,5.3
2022-11-24T06:57:18.647Z,5.3
2022-11-24T06:58:19.069Z,5.3
2022-11-24T06:59:17.511Z,5.3
2022-11-24T07:00:19.310Z,5.3
2022-11-24T07:01:19.456Z,5.3
2022-11-24T07:02:19.222Z,5
2022-11-24T07:03:19.237Z,6
2022-11-24T07:04:19.446Z,5.4
2022-11-24T07:05:18.739Z,5.4
2022-11-24T07:06:19.052Z,5.4
2022-11-24T07:07:19.416Z,5.4
2022-11-24T07:08:22.179Z,5.4
2022-11-24T07:09:19.101Z,5.4
2022-11-24T07:10:18.399Z,5.4
2022-11-24T07:11:18.357Z,5.5
2022-11-24T07:12:18.923Z,5.5
2022-11-24T07:13:18.664Z,5.5
2022-11-24T07:14:18.789Z,5.5
2022-11-24T07:15:18.994Z,5.5
2022-11-24T07:16:19.590Z,5.5
2022-11-24T07:17:19.419Z,5.5
2022-11-24T07:18:18.498Z,5.6
2022-11-24T07:19:25.157Z,5.5
2022-11-24T07:20:18.848Z,5.6
2022-11-24T07:21:18.498Z,6
2022-11-24T07:22:18.903Z,5.6
2022-11-24T07:23:19.157Z,5.6
2022-11-24T07:24:18.567Z,5.6
2022-11-24T07:25:18.384Z,5.6
2022-11-24T07:26:18.784Z,5.6
2022-11-24T07:27:18.979Z,5.6
2022-11-24T07:28:19.368Z,5.6
2022-11-24T07:29:18.819Z,5.6
2022-11-24T07:30:18.432Z,5.6
2022-11-24T07:31:19.056Z,5.6
2022-11-24T07:32:19.411Z,5.6
2022-11-24T07:33:18.702Z,5.6
2022-11-24T07:34:18.595Z,5.6
2022-11-24T07:35:18.988Z,5.6
2022-11-24T07:36:19.377Z,6
2022-11-24T07:37:18.709Z,6
2022-11-24T07:38:19.338Z,5.6
2022-11-24T07:39:18.968Z,5.6
2022-11-24T07:40:18.769Z,5.6
2022-11-24T07:41:19.208Z,5.7
2022-11-24T07:42:19.024Z,5.7
2022-11-24T07:43:24.317Z,5.7
2022-11-24T07:44:18.826Z,5.7
2022-11-24T07:45:18.925Z,5.8
2022-11-24T07:46:19.238Z,5.8
2022-11-24T07:47:18.552Z,5.9
2022-11-24T07:48:18.900Z,5.9
2022-11-24T07:49:18.569Z,5.9
2022-11-24T07:50:19.174Z,6
2022-11-24T07:51:18.653Z,5.9
2022-11-24T07:52:19.014Z,5.9
2022-11-24T07:53:19.346Z,5.9
2022-11-24T07:54:19.002Z,6
2022-11-24T07:55:18.986Z,6
2022-11-24T07:56:19.392Z,6
2022-11-24T07:57:19.219Z,6
2022-11-24T07:58:18.608Z,5.9
2022-11-24T07:59:19.341Z,6
2022-11-24T08:00:18.416Z,6
2022-11-24T08:01:17.845Z,6
2022-11-24T08:02:18.815Z,6
2022-11-24T08:03:18.923Z,6
2022-11-24T08:04:19.102Z,6.1
2022-11-24T08:05:18.742Z,6.1
2022-11-24T08:06:48.199Z,6.2
2022-11-24T08:07:19.554Z,6.2
2022-11-24T08:08:18.730Z,7
2022-11-24T08:09:18.861Z,6.3
2022-11-24T08:10:19.303Z,6.4
2022-11-24T08:11:18.742Z,6.4
2022-11-24T08:12:19.222Z,6.4
2022-11-24T08:13:18.645Z,6.5
2022-11-24T08:14:18.979Z,6.5
2022-11-24T08:15:19.131Z,6.6
2022-11-24T08:16:19.734Z,6.6
2022-11-24T08:17:19.466Z,6.7
2022-11-24T08:18:18.754Z,6.8
2022-11-24T08:19:19.265Z,6.8
2022-11-24T08:20:18.589Z,7
2022-11-24T08:21:19.088Z,7
2022-11-24T08:22:18.677Z,7.2
2022-11-24T08:23:18.984Z,7.2
2022-11-24T08:24:19.017Z,7.3
2022-11-24T08:25:19.327Z,7.4
2022-11-24T08:26:18.626Z,7.4
2022-11-24T08:27:17.976Z,7.4
2022-11-24T08:28:18.929Z,7.4
2022-11-24T08:29:19.021Z,7.5
2022-11-24T08:30:18.884Z,7.6
2022-11-24T08:31:19.017Z,7.6
2022-11-24T08:32:26.071Z,7.6
2022-11-24T08:33:19.102Z,7.8
2022-11-24T08:34:19.248Z,7.9
2022-11-24T08:35:18.950Z,7.9
2022-11-24T08:36:18.534Z,8
2022-11-24T08:37:19.386Z,8
2022-11-24T08:38:18.876Z,8
2022-11-24T08:39:19.243Z,8.1
2022-11-24T08:40:19.340Z,8.1
2022-11-24T08:41:18.721Z,8.1
2022-11-24T08:42:18.655Z,8.1
2022-11-24T08:43:19.055Z,8.2
2022-11-24T08:44:18.920Z,8.2
2022-11-24T08:45:29.529Z,8.3
2022-11-24T08:46:19.366Z,8.3
2022-11-24T08:47:19.105Z,8
2022-11-24T08:48:18.508Z,8
2022-11-24T08:49:18.631Z,8.5
2022-11-24T08:50:19.186Z,8.8
2022-11-24T08:51:19.237Z,8.9
2022-11-24T08:52:18.591Z,8.9
2022-11-24T08:53:18.917Z,9.1
2022-11-24T08:54:18.866Z,9.1
2022-11-24T08:55:18.666Z,9.2
2022-11-24T08:56:18.840Z,9.2
2022-11-24T08:57:25.783Z,8
2022-11-24T08:58:18.932Z,9.2
2022-11-24T08:59:19.549Z,8
2022-11-24T09:00:19.596Z,9.2
2022-11-24T09:01:19.429Z,9.2
2022-11-24T09:02:18.562Z,9.1
2022-11-24T09:03:19.393Z,9.1
2022-11-24T09:04:19.453Z,9.1
2022-11-24T09:05:55.186Z,9.1
2022-11-24T09:07:19.528Z,9.1
2022-11-24T09:08:18.779Z,9.1
2022-11-24T09:09:19.139Z,9.1
2022-11-24T09:10:19.282Z,9
2022-11-24T09:11:18.731Z,9
2022-11-24T09:12:19.534Z,8
2022-11-24T09:13:18.752Z,8.9
2022-11-24T09:14:19.127Z,8.9
2022-11-24T09:15:18.653Z,8
2022-11-24T09:16:19.661Z,8.8
2022-11-24T09:17:19.298Z,8.8
2022-11-24T09:18:19.594Z,8.8
2022-11-24T09:19:19.463Z,8.7
2022-11-24T09:20:19.029Z,8.7
2022-11-24T09:21:18.504Z,8
2022-11-24T09:22:18.577Z,8.6
2022-11-24T09:23:19.051Z,8.7
2022-11-24T09:24:19.380Z,8.7
2022-11-24T09:25:18.705Z,8.7
2022-11-24T09:26:19.208Z,8.6
2022-11-24T09:27:18.465Z,8.6
2022-11-24T09:28:18.638Z,8.7
2022-11-24T09:29:18.972Z,8.7
2022-11-24T09:30:18.708Z,8.8
2022-11-24T09:31:19.247Z,8.8
2022-11-24T09:32:18.717Z,8.8
2022-11-24T09:33:19.438Z,8.9
2022-11-24T09:34:18.724Z,8.8
2022-11-24T09:35:19.257Z,8.9
2022-11-24T09:36:18.805Z,8.8
2022-11-24T09:37:18.719Z,8.9
2022-11-24T09:38:19.078Z,8.9
2022-11-24T09:39:18.632Z,9
2022-11-24T09:40:18.868Z,9.1
2022-11-24T09:41:18.705Z,9.2
2022-11-24T09:42:18.646Z,9.2
2022-11-24T09:43:19.053Z,9.4
2022-11-24T09:44:19.531Z,9.4
2022-11-24T09:45:41.940Z,8
2022-11-24T09:46:17.808Z,8
2022-11-24T09:47:18.995Z,9.8
2022-11-24T09:48:19.311Z,9.8
2022-11-24T09:49:18.636Z,10.1
2022-11-24T09:50:19.089Z,10.1
2022-11-24T09:51:19.412Z,10.1
2022-11-24T09:52:18.768Z,10.3
2022-11-24T09:53:19.117Z,10.3
2022-11-24T09:54:19.480Z,10.3
2022-11-24T09:55:18.809Z,10.4
2022-11-24T09:56:19.159Z,10.5
2022-11-24T09:57:17.921Z,10.6
2022-11-24T09:58:19.379Z,10.7
2022-11-24T09:59:19.204Z,10.8
2022-11-24T10:00:18.651Z,10.8
2022-11-24T10:01:19.179Z,10.8
2022-11-24T10:02:19.080Z,11
2022-11-24T10:03:19.291Z,11.1
2022-11-24T10:04:19.452Z,11.2
2022-11-24T10:05:19.175Z,11.2
2022-11-24T10:06:18.726Z,11.4
2022-11-24T10:07:19.393Z,11.4
2022-11-24T10:08:19.085Z,9
2022-11-24T10:09:18.780Z,9
2022-11-24T10:10:27.423Z,9
2022-11-24T10:11:19.015Z,9
2022-11-24T10:12:19.368Z,11.3
2022-11-24T10:13:18.562Z,11.3
2022-11-24T10:14:19.088Z,11.4
2022-11-24T10:15:19.389Z,11.4
2022-11-24T10:16:19.173Z,11.6
2022-11-24T10:17:19.414Z,11.6
2022-11-24T10:18:21.309Z,11.6
2022-11-24T10:19:18.527Z,11.6
2022-11-24T10:20:19.053Z,11.6
2022-11-24T10:21:19.310Z,11.6
2022-11-24T10:22:18.663Z,11.5
2022-11-24T10:23:18.675Z,11.4
2022-11-24T10:24:18.934Z,11.4
2022-11-24T10:25:19.012Z,11.4
2022-11-24T10:26:19.046Z,11.3
2022-11-24T10:27:19.365Z,11.2
2022-11-24T10:28:18.807Z,11.2
2022-11-24T10:29:18.701Z,11.2
2022-11-24T10:30:19.464Z,11.1
2022-11-24T10:31:19.285Z,11.1
2022-11-24T10:32:19.328Z,9
2022-11-24T10:33:18.537Z,11.1
2022-11-24T10:34:18.806Z,11
2022-11-24T10:35:19.318Z,11
2022-11-24T10:36:19.238Z,10.9
2022-11-24T10:37:18.887Z,10.9
2022-11-24T10:38:18.885Z,10.8
2022-11-24T10:39:18.544Z,10.8
2022-11-24T10:41:00.771Z,10.8
2022-11-24T10:42:18.520Z,10.7
2022-11-24T10:43:18.937Z,10.7
2022-11-24T10:44:19.058Z,10.6
2022-11-24T10:45:18.944Z,10.6
2022-11-24T10:46:18.823Z,10.6
2022-11-24T10:47:18.992Z,10.6
2022-11-24T10:48:18.656Z,10.6
2022-11-24T10:49:19.344Z,10.5
2022-11-24T10:50:19.253Z,10.5
2022-11-24T10:51:18.620Z,10.5
2022-11-24T10:52:18.896Z,10.4
2022-11-24T10:53:18.683Z,10.4
2022-11-24T10:54:19.338Z,10.4
2022-11-24T10:55:21.530Z,10.4
2022-11-24T10:56:19.155Z,10.4
2022-11-24T10:57:19.344Z,10.4
2022-11-24T10:58:18.764Z,10.4
2022-11-24T10:59:19.061Z,10.4
2022-11-24T11:00:19.661Z,10.4
2022-11-24T11:01:19.695Z,10.4
2022-11-24T11:02:19.017Z,10.3
2022-11-24T11:03:17.908Z,10.2
2022-11-24T11:04:17.970Z,9
2022-11-24T11:05:19.049Z,10.2
2022-11-24T11:06:19.433Z,10.2
2022-11-24T11:07:19.135Z,10.2
2022-11-24T11:08:18.676Z,10.2
2022-11-24T11:09:19.248Z,10
2022-11-24T11:10:18.786Z,10
2022-11-24T11:11:19.351Z,10
2022-11-24T11:12:47.468Z,9.9
2022-11-24T11:13:18.504Z,9.9
2022-11-24T11:14:18.887Z,9.8
2022-11-24T11:15:19.297Z,9.8
2022-11-24T11:16:19.410Z,9.8
2022-11-24T11:17:19.061Z,9.8
2022-11-24T11:18:17.726Z,9.7
2022-11-24T11:19:57.148Z,8
2022-11-24T11:20:18.798Z,9.6
2022-11-24T11:21:19.126Z,9.6
2022-11-24T11:22:19.340Z,8
2022-11-24T11:23:19.393Z,9.5
2022-11-24T11:24:18.817Z,9.5
2022-11-24T11:25:19.161Z,9.4
2022-11-24T11:26:18.519Z,9.4
2022-11-24T11:27:17.806Z,9.4
2022-11-24T11:28:22.499Z,9.3
2022-11-24T11:31:21.239Z,9.1
2022-11-24T11:31:25.020Z,9.1
2022-11-24T11:34:25.168Z,8.9
2022-11-24T11:34:32.442Z,8.8
2022-11-24T11:35:18.715Z,8.8
2022-11-24T11:36:19.070Z,8.6
2022-11-24T11:37:19.400Z,8.6
2022-11-24T11:38:18.837Z,8.5
2022-11-24T11:39:19.313Z,8.4
2022-11-24T11:40:18.688Z,7
2022-11-24T11:41:19.115Z,8.3
2022-11-24T11:43:12.049Z,8.3
2022-11-24T11:44:19.622Z,8.2
2022-11-24T11:45:19.204Z,8.2
2022-11-24T11:46:19.937Z,8.2
2022-11-24T11:47:18.994Z,8.1
2022-11-24T11:48:19.269Z,8.1
2022-11-24T11:49:18.675Z,8.1
2022-11-24T11:50:19.934Z,8
2022-11-24T11:51:28.085Z,8
2022-11-24T11:52:19.385Z,7
2022-11-24T11:53:19.050Z,8
2022-11-24T11:54:18.745Z,8
2022-11-24T11:55:19.210Z,8
2022-11-24T11:56:18.546Z,7
2022-11-24T11:57:18.984Z,8.1
2022-11-24T11:58:18.545Z,8.1
2022-11-24T11:59:17.736Z,8.1
2022-11-24T12:00:19.111Z,8.1
2022-11-24T12:01:19.519Z,7
2022-11-24T12:02:19.290Z,7
2022-11-24T12:03:19.470Z,8.1
2022-11-24T12:04:19.572Z,8.2
2022-11-24T12:05:18.600Z,8.2
2022-11-24T12:06:19.499Z,8.2
2022-11-24T12:07:19.028Z,8.2
2022-11-24T12:08:24.953Z,8.2
2022-11-24T12:09:26.114Z,8.2
2022-11-24T12:10:18.660Z,8.2
2022-11-24T12:11:19.089Z,8.3
2022-11-24T12:12:19.214Z,8.3
2022-11-24T12:13:18.702Z,8.4
2022-11-24T12:14:19.255Z,8.4
2022-11-24T12:15:18.594Z,8.4
2022-11-24T12:16:18.752Z,8.4
2022-11-24T12:17:19.092Z,8.5
2022-11-24T12:19:00.834Z,8.6
2022-11-24T12:20:19.240Z,8.6
2022-11-24T12:21:26.735Z,8.6
2022-11-24T12:22:18.643Z,8.6
2022-11-24T12:23:18.213Z,8
2022-11-24T12:24:19.020Z,8.7
2022-11-24T12:25:19.051Z,8.7
2022-11-24T12:26:18.190Z,8.7
2022-11-24T12:27:25.574Z,8.7
2022-11-24T12:28:19.022Z,8.7
2022-11-24T12:29:17.920Z,8.7
2022-11-24T12:30:19.400Z,8.7
2022-11-24T12:31:19.191Z,8.7
2022-11-24T12:32:20.064Z,8.7
2022-11-24T12:33:18.842Z,8.7
2022-11-24T12:34:19.255Z,8.7
2022-11-24T12:35:18.770Z,8.7
2022-11-24T12:36:18.251Z,8.7
2022-11-24T12:37:18.914Z,8.7
2022-11-24T12:38:19.231Z,8.7
2022-11-24T12:39:19.602Z,8.7
2022-11-24T12:40:19.233Z,8.7
2022-11-24T12:41:48.708Z,8
2022-11-24T12:42:19.503Z,8.7
2022-11-24T12:43:19.161Z,8.7
2022-11-24T12:44:18.609Z,8.7
2022-11-24T12:45:19.026Z,8.7
2022-11-24T12:46:21.877Z,8.6
2022-11-24T12:47:18.979Z,8.6
2022-11-24T12:48:19.331Z,8.7
2022-11-24T12:49:18.666Z,8.8
2022-11-24T12:50:19.044Z,8
2022-11-24T12:51:19.130Z,8.7
2022-11-24T12:52:19.512Z,8.8
2022-11-24T12:53:18.364Z,8.8
2022-11-24T12:54:18.236Z,8.8
2022-11-24T12:55:18.625Z,8.8
2022-11-24T12:56:18.217Z,8
2022-11-24T12:57:18.735Z,8.8
2022-11-24T12:58:18.524Z,8.8
2022-11-24T12:59:19.243Z,8.8
2022-11-24T13:00:18.889Z,8.8
2022-11-24T13:01:21.202Z,8.8
2022-11-24T13:02:19.585Z,8.8
2022-11-24T13:03:19.494Z,8.8
2022-11-24T13:04:18.629Z,8.8
2022-11-24T13:05:19.025Z,8.8
2022-11-24T13:06:19.288Z,8.8
2022-11-24T13:07:19.751Z,8.8
2022-11-24T13:08:18.916Z,8
2022-11-24T13:09:18.995Z,8.8
2022-11-24T13:10:19.191Z,8.8
2022-11-24T13:11:19.413Z,8.8
2022-11-24T13:12:19.490Z,8.8
2022-11-24T13:13:18.815Z,8.8
2022-11-24T13:14:18.197Z,8.8
2022-11-24T13:15:50.523Z,8.8
2022-11-24T13:17:30.145Z,8.8
2022-11-24T13:19:18.864Z,8.7
2022-11-24T13:20:19.193Z,8.7
2022-11-24T13:21:18.521Z,8.7
2022-11-24T13:22:19.191Z,8.7
2022-11-24T13:23:19.433Z,8.6
2022-11-24T13:24:20.156Z,8.6
2022-11-24T13:25:19.318Z,8.7
2022-11-24T13:26:18.793Z,8.6
2022-11-24T13:27:19.229Z,8.6
2022-11-24T13:28:54.313Z,8.6
2022-11-24T13:29:27.564Z,8.6
2022-11-24T13:30:18.506Z,8.6
2022-11-24T13:31:19.125Z,8.6
2022-11-24T13:32:19.348Z,8.5
2022-11-24T13:33:27.012Z,8.6
2022-11-24T13:34:18.911Z,8.6
2022-11-24T13:35:18.961Z,8.6
2022-11-24T13:36:19.044Z,8.5
2022-11-24T13:37:38.707Z,8.6
2022-11-24T13:38:17.777Z,8.6
2022-11-24T13:39:19.085Z,8.5
2022-11-24T13:40:18.576Z,8.5
2022-11-24T13:41:35.551Z,8.5
2022-11-24T13:42:48.471Z,8.5
2022-11-24T13:43:18.640Z,8.4
2022-11-24T13:44:19.151Z,8.4
2022-11-24T13:45:18.829Z,8.4
2022-11-24T13:46:18.919Z,8.4
2022-11-24T13:47:19.380Z,8.4
2022-11-24T13:48:19.696Z,8.4
2022-11-24T13:49:18.763Z,8.4
2022-11-24T13:50:18.764Z,8.2
2022-11-24T13:51:19.091Z,8.2
2022-11-24T13:52:19.374Z,7
2022-11-24T13:53:19.379Z,7
2022-11-24T13:54:18.627Z,8.1
2022-11-24T13:55:19.233Z,8.1
2022-11-24T13:56:17.730Z,8
2022-11-24T13:57:19.298Z,8
2022-11-24T13:58:18.683Z,8
2022-11-24T13:59:19.491Z,8
2022-11-24T14:00:19.126Z,8
2022-11-24T14:01:19.387Z,8